Narvon, Pennsylvania
Current Conditions -  °F | °C
As of 5:55 AM on Friday 24 Oct 2014 (Local Time) from KMQS Reporting Station
Overcast Overcast  
Wind Chill: 54°   Ceiling: 2800
Heat Index: 54°   Visibility: 10mi
Dew Point: 46°   Wind: 14mph
Humidity: 77%   Direction: 320°NW
Pressure: 29.87"   Gusts: NA
Location:  40.12°N, 75.97°W
Report Text: KMQS 240955Z AUTO 32012KT 10SM OVC028 12/08 A2987 RMK AO2
Loading
Personal Weather Stations






























Interactive Weather Map
Tropical Storm Tracking
New forecast layout! Learn more

10-Day Weather Forecast

Advertisements
Track Severe Weather on mobile